sensor_id;sensor_type;location;lat;lon;timestamp;temperature;humidity
22035;DHT22;11181;51.002;4.356;2023-09-19T00:01:46;17.20;99.90
22035;DHT22;11181;51.002;4.356;2023-09-19T00:04:14;17.20;99.90
22035;DHT22;11181;51.002;4.356;2023-09-19T00:06:42;17.30;99.90
22035;DHT22;11181;51.002;4.356;2023-09-19T00:09:10;17.30;99.90
22035;DHT22;11181;51.002;4.356;2023-09-19T00:11:39;17.30;99.90
22035;DHT22;11181;51.002;4.356;2023-09-19T00:14:07;17.40;99.90
22035;DHT22;11181;51.002;4.356;2023-09-19T00:16:35;17.30;99.90
22035;DHT22;11181;51.002;4.356;2023-09-19T00:19:02;17.40;99.90
22035;DHT22;11181;51.002;4.356;2023-09-19T00:21:33;17.40;99.90
22035;DHT22;11181;51.002;4.356;2023-09-19T00:24:03;17.30;99.90
22035;DHT22;11181;51.002;4.356;2023-09-19T00:26:31;17.40;99.90
22035;DHT22;11181;51.002;4.356;2023-09-19T00:29:00;17.30;99.90
22035;DHT22;11181;51.002;4.356;2023-09-19T00:31:34;17.30;99.90
22035;DHT22;11181;51.002;4.356;2023-09-19T00:34:03;17.40;99.90
22035;DHT22;11181;51.002;4.356;2023-09-19T00:36:32;17.40;99.90
22035;DHT22;11181;51.002;4.356;2023-09-19T00:39:01;17.40;99.90
22035;DHT22;11181;51.002;4.356;2023-09-19T00:41:31;17.40;99.90
22035;DHT22;11181;51.002;4.356;2023-09-19T00:44:02;17.40;99.90
22035;DHT22;11181;51.002;4.356;2023-09-19T00:46:31;17.40;99.90
22035;DHT22;11181;51.002;4.356;2023-09-19T00:49:00;17.40;99.90
22035;DHT22;11181;51.002;4.356;2023-09-19T00:51:29;17.50;99.90
22035;DHT22;11181;51.002;4.356;2023-09-19T00:53:58;17.40;99.90
22035;DHT22;11181;51.002;4.356;2023-09-19T00:56:27;17.50;99.90
22035;DHT22;11181;51.002;4.356;2023-09-19T00:58:57;17.50;99.90
22035;DHT22;11181;51.002;4.356;2023-09-19T01:01:24;17.50;99.90
22035;DHT22;11181;51.002;4.356;2023-09-19T01:03:52;17.50;99.90
22035;DHT22;11181;51.002;4.356;2023-09-19T01:06:20;17.40;99.90
22035;DHT22;11181;51.002;4.356;2023-09-19T01:08:47;17.40;99.90
22035;DHT22;11181;51.002;4.356;2023-09-19T01:11:21;17.40;99.90
22035;DHT22;11181;51.002;4.356;2023-09-19T01:13:57;17.40;99.90
22035;DHT22;11181;51.002;4.356;2023-09-19T01:16:35;17.40;99.90
22035;DHT22;11181;51.002;4.356;2023-09-19T01:19:24;17.40;99.90
22035;DHT22;11181;51.002;4.356;2023-09-19T01:22:00;17.40;99.90
22035;DHT22;11181;51.002;4.356;2023-09-19T01:28:04;17.40;99.90
22035;DHT22;11181;51.002;4.356;2023-09-19T01:30:39;17.40;99.90
22035;DHT22;11181;51.002;4.356;2023-09-19T01:33:09;17.30;99.90
22035;DHT22;11181;51.002;4.356;2023-09-19T01:35:40;17.30;99.90
22035;DHT22;11181;51.002;4.356;2023-09-19T01:38:08;17.40;99.90
22035;DHT22;11181;51.002;4.356;2023-09-19T01:40:42;17.40;99.90
22035;DHT22;11181;51.002;4.356;2023-09-19T01:43:15;17.40;99.90
22035;DHT22;11181;51.002;4.356;2023-09-19T01:45:50;17.50;99.90
22035;DHT22;11181;51.002;4.356;2023-09-19T01:48:29;17.40;99.90
22035;DHT22;11181;51.002;4.356;2023-09-19T01:51:02;17.30;99.90
22035;DHT22;11181;51.002;4.356;2023-09-19T01:53:36;17.40;99.90
22035;DHT22;11181;51.002;4.356;2023-09-19T01:56:05;17.30;99.90
22035;DHT22;11181;51.002;4.356;2023-09-19T01:58:41;17.30;99.90
22035;DHT22;11181;51.002;4.356;2023-09-19T02:01:15;17.30;99.90
22035;DHT22;11181;51.002;4.356;2023-09-19T02:03:44;17.30;99.90
22035;DHT22;11181;51.002;4.356;2023-09-19T02:06:14;17.30;99.90
22035;DHT22;11181;51.002;4.356;2023-09-19T02:08:41;17.30;99.90
22035;DHT22;11181;51.002;4.356;2023-09-19T02:11:09;16.90;99.90
22035;DHT22;11181;51.002;4.356;2023-09-19T02:13:37;16.80;99.90
22035;DHT22;11181;51.002;4.356;2023-09-19T02:16:05;16.90;99.90
22035;DHT22;11181;51.002;4.356;2023-09-19T02:18:35;16.90;99.90
22035;DHT22;11181;51.002;4.356;2023-09-19T02:21:05;16.80;99.90
22035;DHT22;11181;51.002;4.356;2023-09-19T02:23:32;16.80;99.90
22035;DHT22;11181;51.002;4.356;2023-09-19T02:25:59;16.90;99.90
22035;DHT22;11181;51.002;4.356;2023-09-19T02:28:28;16.90;99.90
22035;DHT22;11181;51.002;4.356;2023-09-19T02:30:57;16.90;99.90
22035;DHT22;11181;51.002;4.356;2023-09-19T02:33:24;16.90;99.90
22035;DHT22;11181;51.002;4.356;2023-09-19T02:35:56;17.00;99.90
22035;DHT22;11181;51.002;4.356;2023-09-19T02:38:25;16.90;99.90
22035;DHT22;11181;51.002;4.356;2023-09-19T02:40:54;16.80;99.90
22035;DHT22;11181;51.002;4.356;2023-09-19T02:43:22;16.70;99.90
22035;DHT22;11181;51.002;4.356;2023-09-19T02:45:50;16.60;99.90
22035;DHT22;11181;51.002;4.356;2023-09-19T02:48:19;16.70;99.90
22035;DHT22;11181;51.002;4.356;2023-09-19T02:50:48;16.70;99.90
22035;DHT22;11181;51.002;4.356;2023-09-19T02:53:18;16.70;99.90
22035;DHT22;11181;51.002;4.356;2023-09-19T02:55:48;16.70;99.90
22035;DHT22;11181;51.002;4.356;2023-09-19T02:58:15;16.60;99.90
22035;DHT22;11181;51.002;4.356;2023-09-19T03:00:45;16.50;99.90
22035;DHT22;11181;51.002;4.356;2023-09-19T03:03:15;16.40;99.90
22035;DHT22;11181;51.002;4.356;2023-09-19T03:05:42;16.40;99.90
22035;DHT22;11181;51.002;4.356;2023-09-19T03:08:12;16.30;99.90
22035;DHT22;11181;51.002;4.356;2023-09-19T03:10:46;16.40;99.90
22035;DHT22;11181;51.002;4.356;2023-09-19T03:13:15;16.40;99.90
22035;DHT22;11181;51.002;4.356;2023-09-19T03:15:42;16.40;99.90
22035;DHT22;11181;51.002;4.356;2023-09-19T03:18:14;16.40;99.90
22035;DHT22;11181;51.002;4.356;2023-09-19T03:20:42;16.40;99.90
22035;DHT22;11181;51.002;4.356;2023-09-19T03:23:11;16.50;99.90
22035;DHT22;11181;51.002;4.356;2023-09-19T03:25:38;16.50;99.90
22035;DHT22;11181;51.002;4.356;2023-09-19T03:28:08;16.60;99.90
22035;DHT22;11181;51.002;4.356;2023-09-19T03:30:37;16.60;99.90
22035;DHT22;11181;51.002;4.356;2023-09-19T03:33:05;16.70;99.90
22035;DHT22;11181;51.002;4.356;2023-09-19T03:35:33;16.70;99.90
22035;DHT22;11181;51.002;4.356;2023-09-19T03:38:02;16.80;99.90
22035;DHT22;11181;51.002;4.356;2023-09-19T03:40:29;16.70;99.90
22035;DHT22;11181;51.002;4.356;2023-09-19T03:43:01;16.60;99.90
22035;DHT22;11181;51.002;4.356;2023-09-19T03:45:31;16.60;99.90
22035;DHT22;11181;51.002;4.356;2023-09-19T03:47:58;16.50;99.90
22035;DHT22;11181;51.002;4.356;2023-09-19T03:50:26;16.50;99.90
22035;DHT22;11181;51.002;4.356;2023-09-19T03:52:56;16.50;99.90
22035;DHT22;11181;51.002;4.356;2023-09-19T03:55:23;16.50;99.90
22035;DHT22;11181;51.002;4.356;2023-09-19T03:57:51;16.50;99.90
22035;DHT22;11181;51.002;4.356;2023-09-19T04:00:19;16.60;99.90
22035;DHT22;11181;51.002;4.356;2023-09-19T04:02:52;16.50;99.90
22035;DHT22;11181;51.002;4.356;2023-09-19T04:05:21;16.60;99.90
22035;DHT22;11181;51.002;4.356;2023-09-19T04:07:50;16.60;99.90
22035;DHT22;11181;51.002;4.356;2023-09-19T04:10:19;16.60;99.90
22035;DHT22;11181;51.002;4.356;2023-09-19T04:12:53;16.70;99.90
22035;DHT22;11181;51.002;4.356;2023-09-19T04:15:21;16.50;99.90
22035;DHT22;11181;51.002;4.356;2023-09-19T04:17:51;16.50;99.90
22035;DHT22;11181;51.002;4.356;2023-09-19T04:20:18;16.40;99.90
22035;DHT22;11181;51.002;4.356;2023-09-19T04:22:46;16.40;99.90
22035;DHT22;11181;51.002;4.356;2023-09-19T04:25:14;16.30;99.90
22035;DHT22;11181;51.002;4.356;2023-09-19T04:27:42;16.20;99.90
22035;DHT22;11181;51.002;4.356;2023-09-19T04:30:11;16.20;99.90
22035;DHT22;11181;51.002;4.356;2023-09-19T04:32:39;16.10;99.90
22035;DHT22;11181;51.002;4.356;2023-09-19T04:35:09;16.10;99.90
22035;DHT22;11181;51.002;4.356;2023-09-19T04:37:37;16.10;99.90
22035;DHT22;11181;51.002;4.356;2023-09-19T04:40:08;16.20;99.90
22035;DHT22;11181;51.002;4.356;2023-09-19T04:42:41;16.20;99.90
22035;DHT22;11181;51.002;4.356;2023-09-19T04:45:10;16.10;99.90
22035;DHT22;11181;51.002;4.356;2023-09-19T04:47:37;16.00;99.90
22035;DHT22;11181;51.002;4.356;2023-09-19T04:50:09;16.00;99.90
22035;DHT22;11181;51.002;4.356;2023-09-19T04:52:41;15.90;99.90
22035;DHT22;11181;51.002;4.356;2023-09-19T04:55:10;15.90;99.90
22035;DHT22;11181;51.002;4.356;2023-09-19T04:57:39;15.80;99.90
22035;DHT22;11181;51.002;4.356;2023-09-19T05:00:07;15.90;99.90
22035;DHT22;11181;51.002;4.356;2023-09-19T05:02:39;15.90;99.90
22035;DHT22;11181;51.002;4.356;2023-09-19T05:05:09;16.00;99.90
22035;DHT22;11181;51.002;4.356;2023-09-19T05:07:39;16.00;99.90
22035;DHT22;11181;51.002;4.356;2023-09-19T05:10:08;16.10;99.90
22035;DHT22;11181;51.002;4.356;2023-09-19T05:12:37;16.10;99.90
22035;DHT22;11181;51.002;4.356;2023-09-19T05:15:06;16.10;99.90
22035;DHT22;11181;51.002;4.356;2023-09-19T05:17:35;16.20;99.90
22035;DHT22;11181;51.002;4.356;2023-09-19T05:20:03;16.10;99.90
22035;DHT22;11181;51.002;4.356;2023-09-19T05:22:42;16.00;99.90
22035;DHT22;11181;51.002;4.356;2023-09-19T05:25:10;16.00;99.90
22035;DHT22;11181;51.002;4.356;2023-09-19T05:27:42;15.90;99.90
22035;DHT22;11181;51.002;4.356;2023-09-19T05:30:10;15.80;99.90
22035;DHT22;11181;51.002;4.356;2023-09-19T05:32:41;15.80;99.90
22035;DHT22;11181;51.002;4.356;2023-09-19T05:35:10;15.70;99.90
22035;DHT22;11181;51.002;4.356;2023-09-19T05:37:39;15.70;99.90
22035;DHT22;11181;51.002;4.356;2023-09-19T05:40:09;15.70;99.90
22035;DHT22;11181;51.002;4.356;2023-09-19T05:42:38;15.70;99.90
22035;DHT22;11181;51.002;4.356;2023-09-19T05:45:07;15.80;99.90
22035;DHT22;11181;51.002;4.356;2023-09-19T05:47:38;15.70;99.90
22035;DHT22;11181;51.002;4.356;2023-09-19T05:50:13;15.70;99.90
22035;DHT22;11181;51.002;4.356;2023-09-19T05:52:40;15.80;99.90
22035;DHT22;11181;51.002;4.356;2023-09-19T05:55:25;16.00;99.90
22035;DHT22;11181;51.002;4.356;2023-09-19T05:58:12;16.10;99.90
22035;DHT22;11181;51.002;4.356;2023-09-19T06:01:06;16.10;99.90
22035;DHT22;11181;51.002;4.356;2023-09-19T06:03:36;16.10;99.90
22035;DHT22;11181;51.002;4.356;2023-09-19T06:06:04;16.00;99.90
22035;DHT22;11181;51.002;4.356;2023-09-19T06:08:33;16.00;99.90
22035;DHT22;11181;51.002;4.356;2023-09-19T06:11:01;16.00;99.90
22035;DHT22;11181;51.002;4.356;2023-09-19T06:13:32;16.00;99.90
22035;DHT22;11181;51.002;4.356;2023-09-19T06:15:59;16.00;99.90
22035;DHT22;11181;51.002;4.356;2023-09-19T06:18:28;16.20;99.90
22035;DHT22;11181;51.002;4.356;2023-09-19T06:21:01;16.20;99.90
22035;DHT22;11181;51.002;4.356;2023-09-19T06:23:33;16.30;99.90
22035;DHT22;11181;51.002;4.356;2023-09-19T06:26:13;16.30;99.90
22035;DHT22;11181;51.002;4.356;2023-09-19T06:28:59;16.40;99.90
22035;DHT22;11181;51.002;4.356;2023-09-19T06:31:43;16.30;99.90
22035;DHT22;11181;51.002;4.356;2023-09-19T06:34:38;16.40;99.90
22035;DHT22;11181;51.002;4.356;2023-09-19T06:37:10;16.50;99.90
22035;DHT22;11181;51.002;4.356;2023-09-19T06:39:39;16.50;99.90
22035;DHT22;11181;51.002;4.356;2023-09-19T06:42:09;16.60;99.90
22035;DHT22;11181;51.002;4.356;2023-09-19T06:44:37;16.50;99.90
22035;DHT22;11181;51.002;4.356;2023-09-19T06:47:04;16.50;99.90
22035;DHT22;11181;51.002;4.356;2023-09-19T06:49:32;16.50;99.90
22035;DHT22;11181;51.002;4.356;2023-09-19T06:51:59;16.50;99.90
22035;DHT22;11181;51.002;4.356;2023-09-19T06:54:29;16.40;99.90
22035;DHT22;11181;51.002;4.356;2023-09-19T06:57:01;16.40;99.90
22035;DHT22;11181;51.002;4.356;2023-09-19T06:59:31;16.50;99.90
22035;DHT22;11181;51.002;4.356;2023-09-19T07:01:58;16.60;99.90
22035;DHT22;11181;51.002;4.356;2023-09-19T07:04:27;16.60;99.90
22035;DHT22;11181;51.002;4.356;2023-09-19T07:06:55;16.60;99.90
22035;DHT22;11181;51.002;4.356;2023-09-19T07:09:23;16.60;99.90
22035;DHT22;11181;51.002;4.356;2023-09-19T07:11:53;16.80;99.90
22035;DHT22;11181;51.002;4.356;2023-09-19T07:14:22;16.80;99.90
22035;DHT22;11181;51.002;4.356;2023-09-19T07:16:52;16.80;99.90
22035;DHT22;11181;51.002;4.356;2023-09-19T07:19:21;16.70;99.90
22035;DHT22;11181;51.002;4.356;2023-09-19T07:21:50;16.70;99.90
22035;DHT22;11181;51.002;4.356;2023-09-19T07:24:18;16.90;99.90
22035;DHT22;11181;51.002;4.356;2023-09-19T07:26:48;17.00;99.90
22035;DHT22;11181;51.002;4.356;2023-09-19T07:29:18;17.00;99.90
22035;DHT22;11181;51.002;4.356;2023-09-19T07:31:45;17.10;99.90
22035;DHT22;11181;51.002;4.356;2023-09-19T07:34:14;17.10;99.90
22035;DHT22;11181;51.002;4.356;2023-09-19T07:36:42;17.30;99.90
22035;DHT22;11181;51.002;4.356;2023-09-19T07:39:10;17.50;99.90
22035;DHT22;11181;51.002;4.356;2023-09-19T07:41:37;17.40;99.90
22035;DHT22;11181;51.002;4.356;2023-09-19T07:44:06;17.40;99.90
22035;DHT22;11181;51.002;4.356;2023-09-19T07:46:35;17.60;99.90
22035;DHT22;11181;51.002;4.356;2023-09-19T07:49:04;17.80;99.90
22035;DHT22;11181;51.002;4.356;2023-09-19T07:51:33;18.00;99.90
22035;DHT22;11181;51.002;4.356;2023-09-19T07:54:00;18.10;99.90
22035;DHT22;11181;51.002;4.356;2023-09-19T07:56:29;18.30;99.90
22035;DHT22;11181;51.002;4.356;2023-09-19T07:58:56;18.30;99.90
22035;DHT22;11181;51.002;4.356;2023-09-19T08:01:25;18.30;99.90
22035;DHT22;11181;51.002;4.356;2023-09-19T08:03:53;18.30;99.90
22035;DHT22;11181;51.002;4.356;2023-09-19T08:06:20;18.40;99.90
22035;DHT22;11181;51.002;4.356;2023-09-19T08:08:53;18.50;99.90
22035;DHT22;11181;51.002;4.356;2023-09-19T08:11:23;18.70;99.90
22035;DHT22;11181;51.002;4.356;2023-09-19T08:13:54;18.50;99.90
22035;DHT22;11181;51.002;4.356;2023-09-19T08:16:25;18.50;99.90
22035;DHT22;11181;51.002;4.356;2023-09-19T08:18:54;18.70;99.90
22035;DHT22;11181;51.002;4.356;2023-09-19T08:21:22;18.70;99.90
22035;DHT22;11181;51.002;4.356;2023-09-19T08:23:49;18.80;99.90
22035;DHT22;11181;51.002;4.356;2023-09-19T08:26:18;18.90;99.90
22035;DHT22;11181;51.002;4.356;2023-09-19T08:28:46;18.90;99.90
22035;DHT22;11181;51.002;4.356;2023-09-19T08:31:16;19.00;99.90
22035;DHT22;11181;51.002;4.356;2023-09-19T08:33:43;19.00;99.90
22035;DHT22;11181;51.002;4.356;2023-09-19T08:36:18;19.00;99.90
22035;DHT22;11181;51.002;4.356;2023-09-19T08:38:46;19.20;99.90
22035;DHT22;11181;51.002;4.356;2023-09-19T08:41:18;19.30;99.90
22035;DHT22;11181;51.002;4.356;2023-09-19T08:43:46;19.40;99.90
22035;DHT22;11181;51.002;4.356;2023-09-19T08:46:15;19.60;99.90
22035;DHT22;11181;51.002;4.356;2023-09-19T08:48:47;19.60;99.90
22035;DHT22;11181;51.002;4.356;2023-09-19T08:51:25;19.70;99.90
22035;DHT22;11181;51.002;4.356;2023-09-19T08:54:01;19.70;99.90
22035;DHT22;11181;51.002;4.356;2023-09-19T08:56:32;19.70;99.90
22035;DHT22;11181;51.002;4.356;2023-09-19T08:59:03;19.70;99.90
22035;DHT22;11181;51.002;4.356;2023-09-19T09:01:31;19.80;99.90
22035;DHT22;11181;51.002;4.356;2023-09-19T09:04:00;20.00;99.90
22035;DHT22;11181;51.002;4.356;2023-09-19T09:06:29;20.20;99.90
22035;DHT22;11181;51.002;4.356;2023-09-19T09:08:58;20.20;99.90
22035;DHT22;11181;51.002;4.356;2023-09-19T09:11:26;20.10;99.90
22035;DHT22;11181;51.002;4.356;2023-09-19T09:13:55;20.10;99.90
22035;DHT22;11181;51.002;4.356;2023-09-19T09:16:24;20.00;99.90
22035;DHT22;11181;51.002;4.356;2023-09-19T09:18:52;20.20;99.90
22035;DHT22;11181;51.002;4.356;2023-09-19T09:21:25;20.30;99.90
22035;DHT22;11181;51.002;4.356;2023-09-19T09:23:54;20.10;99.90
22035;DHT22;11181;51.002;4.356;2023-09-19T09:26:43;20.00;99.90
22035;DHT22;11181;51.002;4.356;2023-09-19T09:29:11;19.80;99.90
22035;DHT22;11181;51.002;4.356;2023-09-19T09:31:40;19.80;99.90
22035;DHT22;11181;51.002;4.356;2023-09-19T09:34:09;19.90;99.90
22035;DHT22;11181;51.002;4.356;2023-09-19T09:36:40;20.10;99.90
22035;DHT22;11181;51.002;4.356;2023-09-19T09:39:07;20.20;99.90
22035;DHT22;11181;51.002;4.356;2023-09-19T09:41:44;20.10;99.90
22035;DHT22;11181;51.002;4.356;2023-09-19T09:44:17;20.10;99.90
22035;DHT22;11181;51.002;4.356;2023-09-19T09:46:46;20.20;99.90
22035;DHT22;11181;51.002;4.356;2023-09-19T09:49:31;20.10;99.90
22035;DHT22;11181;51.002;4.356;2023-09-19T09:52:01;20.30;99.90
22035;DHT22;11181;51.002;4.356;2023-09-19T09:54:31;20.30;99.90
22035;DHT22;11181;51.002;4.356;2023-09-19T09:57:04;20.30;99.90
22035;DHT22;11181;51.002;4.356;2023-09-19T09:59:52;20.40;99.90
22035;DHT22;11181;51.002;4.356;2023-09-19T10:02:25;20.40;99.90
22035;DHT22;11181;51.002;4.356;2023-09-19T10:04:56;20.60;99.90
22035;DHT22;11181;51.002;4.356;2023-09-19T10:07:40;20.90;99.90
22035;DHT22;11181;51.002;4.356;2023-09-19T10:10:13;21.30;99.90
22035;DHT22;11181;51.002;4.356;2023-09-19T10:12:47;21.60;99.90
22035;DHT22;11181;51.002;4.356;2023-09-19T10:15:16;21.90;99.90
22035;DHT22;11181;51.002;4.356;2023-09-19T10:17:46;21.80;99.90
22035;DHT22;11181;51.002;4.356;2023-09-19T10:20:15;21.90;99.90
22035;DHT22;11181;51.002;4.356;2023-09-19T10:23:00;22.20;99.90
22035;DHT22;11181;51.002;4.356;2023-09-19T10:25:30;22.10;99.90
22035;DHT22;11181;51.002;4.356;2023-09-19T10:28:16;22.00;99.90
22035;DHT22;11181;51.002;4.356;2023-09-19T10:30:51;22.30;99.90
22035;DHT22;11181;51.002;4.356;2023-09-19T10:33:20;22.50;99.90
22035;DHT22;11181;51.002;4.356;2023-09-19T10:35:49;22.50;99.90
22035;DHT22;11181;51.002;4.356;2023-09-19T10:38:19;22.50;99.90
22035;DHT22;11181;51.002;4.356;2023-09-19T10:40:51;22.60;99.90
22035;DHT22;11181;51.002;4.356;2023-09-19T10:43:21;22.70;99.90
22035;DHT22;11181;51.002;4.356;2023-09-19T10:46:01;22.80;99.90
22035;DHT22;11181;51.002;4.356;2023-09-19T10:48:31;22.90;99.90
22035;DHT22;11181;51.002;4.356;2023-09-19T10:51:04;22.90;99.90
22035;DHT22;11181;51.002;4.356;2023-09-19T10:53:44;22.80;99.90
22035;DHT22;11181;51.002;4.356;2023-09-19T10:56:19;22.80;99.90
22035;DHT22;11181;51.002;4.356;2023-09-19T10:58:48;22.70;99.90
22035;DHT22;11181;51.002;4.356;2023-09-19T11:01:18;22.90;99.90
22035;DHT22;11181;51.002;4.356;2023-09-19T11:03:46;22.80;99.90
22035;DHT22;11181;51.002;4.356;2023-09-19T11:06:17;23.00;99.90
22035;DHT22;11181;51.002;4.356;2023-09-19T11:08:52;23.20;99.90
22035;DHT22;11181;51.002;4.356;2023-09-19T11:11:43;23.40;99.90
22035;DHT22;11181;51.002;4.356;2023-09-19T11:14:41;23.80;99.90
22035;DHT22;11181;51.002;4.356;2023-09-19T11:18:06;23.80;99.90
22035;DHT22;11181;51.002;4.356;2023-09-19T11:24:30;23.70;99.90
22035;DHT22;11181;51.002;4.356;2023-09-19T11:27:15;23.70;99.90
22035;DHT22;11181;51.002;4.356;2023-09-19T11:29:45;23.90;99.90
22035;DHT22;11181;51.002;4.356;2023-09-19T11:32:15;23.80;99.90
22035;DHT22;11181;51.002;4.356;2023-09-19T11:34:47;24.00;99.90
22035;DHT22;11181;51.002;4.356;2023-09-19T11:40:38;24.00;99.90
22035;DHT22;11181;51.002;4.356;2023-09-19T11:43:31;23.40;99.90
22035;DHT22;11181;51.002;4.356;2023-09-19T11:46:08;23.40;99.90
22035;DHT22;11181;51.002;4.356;2023-09-19T11:48:38;23.60;99.90
22035;DHT22;11181;51.002;4.356;2023-09-19T11:51:16;23.40;99.90
22035;DHT22;11181;51.002;4.356;2023-09-19T11:53:49;23.40;99.90
22035;DHT22;11181;51.002;4.356;2023-09-19T11:56:18;23.40;99.90
22035;DHT22;11181;51.002;4.356;2023-09-19T11:58:46;23.20;99.90
22035;DHT22;11181;51.002;4.356;2023-09-19T12:01:23;22.90;99.90
22035;DHT22;11181;51.002;4.356;2023-09-19T12:03:56;22.80;99.90
22035;DHT22;11181;51.002;4.356;2023-09-19T12:06:27;22.80;99.90
22035;DHT22;11181;51.002;4.356;2023-09-19T12:08:58;22.90;99.90
22035;DHT22;11181;51.002;4.356;2023-09-19T12:11:28;23.10;99.90
22035;DHT22;11181;51.002;4.356;2023-09-19T12:14:00;23.20;99.90
22035;DHT22;11181;51.002;4.356;2023-09-19T12:16:29;23.20;99.90
22035;DHT22;11181;51.002;4.356;2023-09-19T12:19:33;22.90;99.90
22035;DHT22;11181;51.002;4.356;2023-09-19T12:22:21;22.70;99.90
22035;DHT22;11181;51.002;4.356;2023-09-19T12:25:03;22.90;99.90
22035;DHT22;11181;51.002;4.356;2023-09-19T12:27:47;23.10;99.90
22035;DHT22;11181;51.002;4.356;2023-09-19T12:30:29;23.20;99.90
22035;DHT22;11181;51.002;4.356;2023-09-19T12:33:05;23.10;99.90
22035;DHT22;11181;51.002;4.356;2023-09-19T12:35:33;23.00;99.90
22035;DHT22;11181;51.002;4.356;2023-09-19T12:38:13;22.90;99.90
22035;DHT22;11181;51.002;4.356;2023-09-19T12:41:04;23.10;99.90
22035;DHT22;11181;51.002;4.356;2023-09-19T12:43:38;23.30;99.90
22035;DHT22;11181;51.002;4.356;2023-09-19T12:46:12;23.40;99.90
22035;DHT22;11181;51.002;4.356;2023-09-19T12:48:43;23.40;99.90
22035;DHT22;11181;51.002;4.356;2023-09-19T12:51:16;23.20;99.90
22035;DHT22;11181;51.002;4.356;2023-09-19T12:53:57;23.00;99.90
22035;DHT22;11181;51.002;4.356;2023-09-19T12:56:28;23.00;99.90
22035;DHT22;11181;51.002;4.356;2023-09-19T12:59:12;23.10;99.90
22035;DHT22;11181;51.002;4.356;2023-09-19T13:01:49;23.10;99.90
22035;DHT22;11181;51.002;4.356;2023-09-19T13:04:58;23.10;99.90
22035;DHT22;11181;51.002;4.356;2023-09-19T13:07:45;22.80;99.90
22035;DHT22;11181;51.002;4.356;2023-09-19T13:10:21;22.70;99.90
22035;DHT22;11181;51.002;4.356;2023-09-19T13:12:54;22.50;99.90
22035;DHT22;11181;51.002;4.356;2023-09-19T13:15:53;22.40;99.90
22035;DHT22;11181;51.002;4.356;2023-09-19T13:18:24;22.50;99.90
22035;DHT22;11181;51.002;4.356;2023-09-19T13:21:05;22.50;99.90
22035;DHT22;11181;51.002;4.356;2023-09-19T13:23:35;22.50;99.90
22035;DHT22;11181;51.002;4.356;2023-09-19T13:26:05;22.30;99.90
22035;DHT22;11181;51.002;4.356;2023-09-19T13:28:34;22.30;99.90
22035;DHT22;11181;51.002;4.356;2023-09-19T13:31:03;22.10;99.90
22035;DHT22;11181;51.002;4.356;2023-09-19T13:33:33;22.20;99.90
22035;DHT22;11181;51.002;4.356;2023-09-19T13:36:01;22.30;99.90
22035;DHT22;11181;51.002;4.356;2023-09-19T13:38:29;22.30;99.90
22035;DHT22;11181;51.002;4.356;2023-09-19T13:40:59;22.20;99.90
22035;DHT22;11181;51.002;4.356;2023-09-19T13:43:27;22.10;99.90
22035;DHT22;11181;51.002;4.356;2023-09-19T13:45:55;22.20;99.90
22035;DHT22;11181;51.002;4.356;2023-09-19T13:48:24;22.40;99.90
22035;DHT22;11181;51.002;4.356;2023-09-19T13:50:51;22.50;99.90
22035;DHT22;11181;51.002;4.356;2023-09-19T13:53:18;22.60;99.90
22035;DHT22;11181;51.002;4.356;2023-09-19T13:55:45;22.70;99.90
22035;DHT22;11181;51.002;4.356;2023-09-19T13:58:15;22.70;99.90
22035;DHT22;11181;51.002;4.356;2023-09-19T14:00:44;22.70;99.90
22035;DHT22;11181;51.002;4.356;2023-09-19T14:03:12;22.60;99.90
22035;DHT22;11181;51.002;4.356;2023-09-19T14:05:41;22.40;99.90
22035;DHT22;11181;51.002;4.356;2023-09-19T14:08:08;22.40;99.90
22035;DHT22;11181;51.002;4.356;2023-09-19T14:10:37;22.40;99.90
22035;DHT22;11181;51.002;4.356;2023-09-19T14:13:04;22.40;99.90
22035;DHT22;11181;51.002;4.356;2023-09-19T14:15:32;22.30;99.90
22035;DHT22;11181;51.002;4.356;2023-09-19T14:18:04;22.60;99.90
22035;DHT22;11181;51.002;4.356;2023-09-19T14:20:31;22.80;99.90
22035;DHT22;11181;51.002;4.356;2023-09-19T14:22:59;23.00;99.90
22035;DHT22;11181;51.002;4.356;2023-09-19T14:25:27;23.00;99.90
22035;DHT22;11181;51.002;4.356;2023-09-19T14:27:55;22.70;99.90
22035;DHT22;11181;51.002;4.356;2023-09-19T14:30:22;22.60;99.90
22035;DHT22;11181;51.002;4.356;2023-09-19T14:32:49;22.70;99.90
22035;DHT22;11181;51.002;4.356;2023-09-19T14:35:19;22.60;99.90
22035;DHT22;11181;51.002;4.356;2023-09-19T14:37:49;22.50;99.90
22035;DHT22;11181;51.002;4.356;2023-09-19T14:40:17;22.40;99.90
22035;DHT22;11181;51.002;4.356;2023-09-19T14:42:46;22.50;99.90
22035;DHT22;11181;51.002;4.356;2023-09-19T14:45:17;22.50;99.90
22035;DHT22;11181;51.002;4.356;2023-09-19T14:47:46;22.40;99.90
22035;DHT22;11181;51.002;4.356;2023-09-19T14:50:14;22.30;99.90
22035;DHT22;11181;51.002;4.356;2023-09-19T14:52:42;22.10;99.90
22035;DHT22;11181;51.002;4.356;2023-09-19T14:55:18;21.90;99.90
22035;DHT22;11181;51.002;4.356;2023-09-19T14:57:52;21.90;99.90
22035;DHT22;11181;51.002;4.356;2023-09-19T15:00:35;21.90;99.90
22035;DHT22;11181;51.002;4.356;2023-09-19T15:03:50;21.80;99.90
22035;DHT22;11181;51.002;4.356;2023-09-19T15:06:47;21.70;99.90
22035;DHT22;11181;51.002;4.356;2023-09-19T15:09:20;21.50;99.90
22035;DHT22;11181;51.002;4.356;2023-09-19T15:11:51;21.50;99.90
22035;DHT22;11181;51.002;4.356;2023-09-19T15:14:20;21.30;99.90
22035;DHT22;11181;51.002;4.356;2023-09-19T15:16:50;21.20;99.90
22035;DHT22;11181;51.002;4.356;2023-09-19T15:19:17;21.20;99.90
22035;DHT22;11181;51.002;4.356;2023-09-19T15:21:44;21.10;99.90
22035;DHT22;11181;51.002;4.356;2023-09-19T15:24:12;21.20;99.90
22035;DHT22;11181;51.002;4.356;2023-09-19T15:26:40;21.30;99.90
22035;DHT22;11181;51.002;4.356;2023-09-19T15:29:09;21.20;99.90
22035;DHT22;11181;51.002;4.356;2023-09-19T15:31:36;21.30;99.90
22035;DHT22;11181;51.002;4.356;2023-09-19T15:34:04;21.40;99.90
22035;DHT22;11181;51.002;4.356;2023-09-19T15:36:31;21.30;99.90
22035;DHT22;11181;51.002;4.356;2023-09-19T15:39:00;21.30;99.90
22035;DHT22;11181;51.002;4.356;2023-09-19T15:41:28;21.30;99.90
22035;DHT22;11181;51.002;4.356;2023-09-19T15:43:58;21.20;99.90
22035;DHT22;11181;51.002;4.356;2023-09-19T15:46:26;21.10;99.90
22035;DHT22;11181;51.002;4.356;2023-09-19T15:48:55;21.00;99.90
22035;DHT22;11181;51.002;4.356;2023-09-19T15:51:23;20.80;99.90
22035;DHT22;11181;51.002;4.356;2023-09-19T15:53:53;20.90;99.90
22035;DHT22;11181;51.002;4.356;2023-09-19T15:56:22;20.90;99.90
22035;DHT22;11181;51.002;4.356;2023-09-19T15:58:53;21.00;99.90
22035;DHT22;11181;51.002;4.356;2023-09-19T16:01:22;20.90;99.90
22035;DHT22;11181;51.002;4.356;2023-09-19T16:03:50;20.80;99.90
22035;DHT22;11181;51.002;4.356;2023-09-19T16:06:39;20.90;99.90
22035;DHT22;11181;51.002;4.356;2023-09-19T16:09:35;20.90;99.90